Terminal Aerodrome Forecast
Issued by NWS

Home | Current Version | Previous Version | Text Only | Print | Product List | Glossary On
Versions: 1 2 3 4 5 6 7 8 9 10 11 12 13 14
000
FTAK31 PAJN 030500
TAFAPG
TAF
PAPG 030530Z 0306/0406 VRB04KT P6SM SCT060
     FM030800 00000KT 6SM BCFG SCT004
     FM031600 06005KT P6SM SCT150
      AMD LTD TO CLD VIS AND WIND TIL 031500=

USA.gov is the U.S. government's official web portal to all federal, state and local government web resources and services.